sensor_id;sensor_type;location;lat;lon;timestamp;temperature;humidity
70456;DHT22;57916;51.996;5.180;2023-02-14T00:00:49;8.50;67.50
70456;DHT22;57916;51.996;5.180;2023-02-14T00:03:15;8.50;67.30
70456;DHT22;57916;51.996;5.180;2023-02-14T00:05:42;8.50;67.30
70456;DHT22;57916;51.996;5.180;2023-02-14T00:08:09;8.60;67.30
70456;DHT22;57916;51.996;5.180;2023-02-14T00:10:36;8.60;67.10
70456;DHT22;57916;51.996;5.180;2023-02-14T00:13:04;8.60;66.80
70456;DHT22;57916;51.996;5.180;2023-02-14T00:15:30;8.60;66.60
70456;DHT22;57916;51.996;5.180;2023-02-14T00:17:58;8.60;66.40
70456;DHT22;57916;51.996;5.180;2023-02-14T00:20:26;8.60;66.20
70456;DHT22;57916;51.996;5.180;2023-02-14T00:22:53;8.60;66.10
70456;DHT22;57916;51.996;5.180;2023-02-14T00:25:20;8.50;66.10
70456;DHT22;57916;51.996;5.180;2023-02-14T00:27:47;8.50;66.20
70456;DHT22;57916;51.996;5.180;2023-02-14T00:30:14;8.50;65.90
70456;DHT22;57916;51.996;5.180;2023-02-14T00:32:42;8.40;65.70
70456;DHT22;57916;51.996;5.180;2023-02-14T00:35:09;8.40;65.30
70456;DHT22;57916;51.996;5.180;2023-02-14T00:37:39;8.40;65.40
70456;DHT22;57916;51.996;5.180;2023-02-14T00:40:07;8.30;65.30
70456;DHT22;57916;51.996;5.180;2023-02-14T00:42:38;8.30;65.60
70456;DHT22;57916;51.996;5.180;2023-02-14T00:45:05;8.30;65.60
70456;DHT22;57916;51.996;5.180;2023-02-14T00:47:34;8.20;65.40
70456;DHT22;57916;51.996;5.180;2023-02-14T00:50:01;8.20;65.70
70456;DHT22;57916;51.996;5.180;2023-02-14T00:52:30;8.20;66.00
70456;DHT22;57916;51.996;5.180;2023-02-14T00:54:57;8.10;66.00
70456;DHT22;57916;51.996;5.180;2023-02-14T00:57:24;8.10;65.80
70456;DHT22;57916;51.996;5.180;2023-02-14T00:59:51;8.10;65.70
70456;DHT22;57916;51.996;5.180;2023-02-14T01:02:19;8.00;65.50
70456;DHT22;57916;51.996;5.180;2023-02-14T01:04:46;7.90;65.10
70456;DHT22;57916;51.996;5.180;2023-02-14T01:07:13;7.70;65.40
70456;DHT22;57916;51.996;5.180;2023-02-14T01:09:40;7.60;65.70
70456;DHT22;57916;51.996;5.180;2023-02-14T01:12:07;7.60;66.00
70456;DHT22;57916;51.996;5.180;2023-02-14T01:14:34;7.60;66.00
70456;DHT22;57916;51.996;5.180;2023-02-14T01:17:01;7.60;66.10
70456;DHT22;57916;51.996;5.180;2023-02-14T01:19:28;7.50;66.10
70456;DHT22;57916;51.996;5.180;2023-02-14T01:21:55;7.40;66.00
70456;DHT22;57916;51.996;5.180;2023-02-14T01:24:22;7.40;66.70
70456;DHT22;57916;51.996;5.180;2023-02-14T01:26:50;7.30;67.20
70456;DHT22;57916;51.996;5.180;2023-02-14T01:29:17;7.30;67.50
70456;DHT22;57916;51.996;5.180;2023-02-14T01:31:44;7.30;67.60
70456;DHT22;57916;51.996;5.180;2023-02-14T01:34:14;7.30;67.50
70456;DHT22;57916;51.996;5.180;2023-02-14T01:36:40;7.40;67.70
70456;DHT22;57916;51.996;5.180;2023-02-14T01:39:12;7.30;67.50
70456;DHT22;57916;51.996;5.180;2023-02-14T01:41:41;7.30;67.40
70456;DHT22;57916;51.996;5.180;2023-02-14T01:46:45;7.40;69.20
70456;DHT22;57916;51.996;5.180;2023-02-14T01:49:24;7.40;70.20
70456;DHT22;57916;51.996;5.180;2023-02-14T01:51:58;7.40;70.20
70456;DHT22;57916;51.996;5.180;2023-02-14T01:54:31;7.50;70.00
70456;DHT22;57916;51.996;5.180;2023-02-14T01:57:03;7.50;69.60
70456;DHT22;57916;51.996;5.180;2023-02-14T01:59:35;7.50;69.50
70456;DHT22;57916;51.996;5.180;2023-02-14T02:02:05;7.60;69.50
70456;DHT22;57916;51.996;5.180;2023-02-14T02:04:37;7.60;69.70
70456;DHT22;57916;51.996;5.180;2023-02-14T02:07:10;7.60;69.90
70456;DHT22;57916;51.996;5.180;2023-02-14T02:09:50;7.60;69.70
70456;DHT22;57916;51.996;5.180;2023-02-14T02:12:22;7.60;69.30
70456;DHT22;57916;51.996;5.180;2023-02-14T02:14:52;7.60;68.90
70456;DHT22;57916;51.996;5.180;2023-02-14T02:17:51;7.60;68.60
70456;DHT22;57916;51.996;5.180;2023-02-14T02:26:22;7.50;70.60
70456;DHT22;57916;51.996;5.180;2023-02-14T02:40:35;7.50;73.60
70456;DHT22;57916;51.996;5.180;2023-02-14T02:43:36;7.50;73.40
70456;DHT22;57916;51.996;5.180;2023-02-14T02:46:35;7.60;72.50
70456;DHT22;57916;51.996;5.180;2023-02-14T02:55:23;7.40;72.30
70456;DHT22;57916;51.996;5.180;2023-02-14T02:57:53;7.40;72.20
70456;DHT22;57916;51.996;5.180;2023-02-14T03:00:23;7.40;71.60
70456;DHT22;57916;51.996;5.180;2023-02-14T03:02:53;7.40;71.30
70456;DHT22;57916;51.996;5.180;2023-02-14T03:05:40;7.50;71.90
70456;DHT22;57916;51.996;5.180;2023-02-14T03:08:07;7.40;70.30
70456;DHT22;57916;51.996;5.180;2023-02-14T03:10:36;7.40;70.00
70456;DHT22;57916;51.996;5.180;2023-02-14T03:16:23;7.40;69.50
70456;DHT22;57916;51.996;5.180;2023-02-14T03:18:56;7.40;69.20
70456;DHT22;57916;51.996;5.180;2023-02-14T03:27:32;7.30;70.10
70456;DHT22;57916;51.996;5.180;2023-02-14T03:30:17;7.30;70.10
70456;DHT22;57916;51.996;5.180;2023-02-14T03:32:59;7.30;69.50
70456;DHT22;57916;51.996;5.180;2023-02-14T03:40:48;7.40;70.30
70456;DHT22;57916;51.996;5.180;2023-02-14T03:43:25;7.30;70.20
70456;DHT22;57916;51.996;5.180;2023-02-14T03:48:34;7.40;69.10
70456;DHT22;57916;51.996;5.180;2023-02-14T03:51:03;7.40;68.90
70456;DHT22;57916;51.996;5.180;2023-02-14T03:53:34;7.30;68.70
70456;DHT22;57916;51.996;5.180;2023-02-14T03:58:37;7.40;68.30
70456;DHT22;57916;51.996;5.180;2023-02-14T04:01:13;7.30;68.00
70456;DHT22;57916;51.996;5.180;2023-02-14T04:03:43;7.20;67.80
70456;DHT22;57916;51.996;5.180;2023-02-14T04:06:11;7.20;67.70
70456;DHT22;57916;51.996;5.180;2023-02-14T04:08:38;7.10;67.70
70456;DHT22;57916;51.996;5.180;2023-02-14T04:11:05;7.10;67.70
70456;DHT22;57916;51.996;5.180;2023-02-14T04:13:34;7.10;67.70
70456;DHT22;57916;51.996;5.180;2023-02-14T04:16:03;7.10;67.80
70456;DHT22;57916;51.996;5.180;2023-02-14T04:18:30;7.10;68.00
70456;DHT22;57916;51.996;5.180;2023-02-14T04:21:16;7.10;68.10
70456;DHT22;57916;51.996;5.180;2023-02-14T04:23:43;7.10;68.30
70456;DHT22;57916;51.996;5.180;2023-02-14T04:26:10;7.10;68.50
70456;DHT22;57916;51.996;5.180;2023-02-14T04:28:37;7.10;68.60
70456;DHT22;57916;51.996;5.180;2023-02-14T04:31:05;7.10;68.10
70456;DHT22;57916;51.996;5.180;2023-02-14T04:33:33;7.10;68.20
70456;DHT22;57916;51.996;5.180;2023-02-14T04:36:00;7.10;68.10
70456;DHT22;57916;51.996;5.180;2023-02-14T04:38:27;7.10;67.90
70456;DHT22;57916;51.996;5.180;2023-02-14T04:40:54;7.10;67.70
70456;DHT22;57916;51.996;5.180;2023-02-14T04:43:21;7.00;67.70
70456;DHT22;57916;51.996;5.180;2023-02-14T04:45:48;7.00;67.80
70456;DHT22;57916;51.996;5.180;2023-02-14T04:48:15;6.90;67.70
70456;DHT22;57916;51.996;5.180;2023-02-14T04:50:42;6.90;67.70
70456;DHT22;57916;51.996;5.180;2023-02-14T04:53:11;6.80;67.60
70456;DHT22;57916;51.996;5.180;2023-02-14T04:55:38;6.70;68.10
70456;DHT22;57916;51.996;5.180;2023-02-14T04:58:05;6.70;68.50
70456;DHT22;57916;51.996;5.180;2023-02-14T05:00:32;6.60;69.50
70456;DHT22;57916;51.996;5.180;2023-02-14T05:02:59;6.60;70.80
70456;DHT22;57916;51.996;5.180;2023-02-14T05:05:26;6.60;70.50
70456;DHT22;57916;51.996;5.180;2023-02-14T05:07:53;6.50;71.60
70456;DHT22;57916;51.996;5.180;2023-02-14T05:10:20;6.50;72.50
70456;DHT22;57916;51.996;5.180;2023-02-14T05:12:47;6.50;72.90
70456;DHT22;57916;51.996;5.180;2023-02-14T05:15:14;6.60;73.00
70456;DHT22;57916;51.996;5.180;2023-02-14T05:17:41;6.60;73.20
70456;DHT22;57916;51.996;5.180;2023-02-14T05:20:08;6.70;73.10
70456;DHT22;57916;51.996;5.180;2023-02-14T05:22:35;6.70;73.10
70456;DHT22;57916;51.996;5.180;2023-02-14T05:25:02;6.80;72.30
70456;DHT22;57916;51.996;5.180;2023-02-14T05:27:29;6.80;71.40
70456;DHT22;57916;51.996;5.180;2023-02-14T05:29:56;6.90;70.60
70456;DHT22;57916;51.996;5.180;2023-02-14T05:32:23;7.00;70.30
70456;DHT22;57916;51.996;5.180;2023-02-14T05:34:50;7.00;70.00
70456;DHT22;57916;51.996;5.180;2023-02-14T05:37:17;7.00;69.80
70456;DHT22;57916;51.996;5.180;2023-02-14T05:39:44;7.00;69.70
70456;DHT22;57916;51.996;5.180;2023-02-14T05:42:11;7.10;69.70
70456;DHT22;57916;51.996;5.180;2023-02-14T05:44:38;7.00;69.80
70456;DHT22;57916;51.996;5.180;2023-02-14T05:47:05;7.00;70.20
70456;DHT22;57916;51.996;5.180;2023-02-14T05:49:33;7.00;69.90
70456;DHT22;57916;51.996;5.180;2023-02-14T05:52:01;7.10;69.50
70456;DHT22;57916;51.996;5.180;2023-02-14T05:54:28;7.00;69.30
70456;DHT22;57916;51.996;5.180;2023-02-14T05:56:55;7.10;69.20
70456;DHT22;57916;51.996;5.180;2023-02-14T05:59:22;7.10;69.20
70456;DHT22;57916;51.996;5.180;2023-02-14T06:01:49;7.10;69.10
70456;DHT22;57916;51.996;5.180;2023-02-14T06:04:16;7.10;69.00
70456;DHT22;57916;51.996;5.180;2023-02-14T06:06:43;7.10;68.80
70456;DHT22;57916;51.996;5.180;2023-02-14T06:09:10;7.10;68.80
70456;DHT22;57916;51.996;5.180;2023-02-14T06:11:37;7.10;68.60
70456;DHT22;57916;51.996;5.180;2023-02-14T06:14:04;7.10;68.40
70456;DHT22;57916;51.996;5.180;2023-02-14T06:16:31;7.00;68.40
70456;DHT22;57916;51.996;5.180;2023-02-14T06:19:01;7.00;68.30
70456;DHT22;57916;51.996;5.180;2023-02-14T06:21:28;7.00;68.30
70456;DHT22;57916;51.996;5.180;2023-02-14T06:23:55;7.00;68.20
70456;DHT22;57916;51.996;5.180;2023-02-14T06:26:22;6.90;67.80
70456;DHT22;57916;51.996;5.180;2023-02-14T06:28:54;6.80;68.00
70456;DHT22;57916;51.996;5.180;2023-02-14T06:31:22;6.80;67.80
70456;DHT22;57916;51.996;5.180;2023-02-14T06:33:51;6.70;67.60
70456;DHT22;57916;51.996;5.180;2023-02-14T06:36:19;6.70;67.60
70456;DHT22;57916;51.996;5.180;2023-02-14T06:38:47;6.70;67.50
70456;DHT22;57916;51.996;5.180;2023-02-14T06:41:15;6.60;67.80
70456;DHT22;57916;51.996;5.180;2023-02-14T06:43:44;6.40;68.20
70456;DHT22;57916;51.996;5.180;2023-02-14T06:46:11;6.40;68.30
70456;DHT22;57916;51.996;5.180;2023-02-14T06:48:38;6.30;68.30
70456;DHT22;57916;51.996;5.180;2023-02-14T06:51:05;6.30;68.50
70456;DHT22;57916;51.996;5.180;2023-02-14T06:53:33;6.30;68.50
70456;DHT22;57916;51.996;5.180;2023-02-14T06:56:00;6.30;69.40
70456;DHT22;57916;51.996;5.180;2023-02-14T06:58:27;6.30;68.40
70456;DHT22;57916;51.996;5.180;2023-02-14T07:00:58;6.30;68.50
70456;DHT22;57916;51.996;5.180;2023-02-14T07:03:25;6.40;68.40
70456;DHT22;57916;51.996;5.180;2023-02-14T07:05:53;6.40;68.40
70456;DHT22;57916;51.996;5.180;2023-02-14T07:08:20;6.40;68.20
70456;DHT22;57916;51.996;5.180;2023-02-14T07:10:47;6.40;68.00
70456;DHT22;57916;51.996;5.180;2023-02-14T07:13:14;6.40;67.90
70456;DHT22;57916;51.996;5.180;2023-02-14T07:15:43;6.30;67.90
70456;DHT22;57916;51.996;5.180;2023-02-14T07:18:10;6.30;68.10
70456;DHT22;57916;51.996;5.180;2023-02-14T07:20:37;6.30;68.40
70456;DHT22;57916;51.996;5.180;2023-02-14T07:23:04;6.20;68.50
70456;DHT22;57916;51.996;5.180;2023-02-14T07:25:31;6.20;68.80
70456;DHT22;57916;51.996;5.180;2023-02-14T07:27:58;6.10;69.20
70456;DHT22;57916;51.996;5.180;2023-02-14T07:30:25;6.20;69.00
70456;DHT22;57916;51.996;5.180;2023-02-14T07:32:52;6.30;68.80
70456;DHT22;57916;51.996;5.180;2023-02-14T07:35:19;6.30;68.50
70456;DHT22;57916;51.996;5.180;2023-02-14T07:37:49;6.30;68.50
70456;DHT22;57916;51.996;5.180;2023-02-14T07:40:16;6.20;68.60
70456;DHT22;57916;51.996;5.180;2023-02-14T07:42:44;6.10;69.10
70456;DHT22;57916;51.996;5.180;2023-02-14T07:45:17;6.00;69.40
70456;DHT22;57916;51.996;5.180;2023-02-14T07:47:50;5.90;69.80
70456;DHT22;57916;51.996;5.180;2023-02-14T07:50:18;6.00;70.00
70456;DHT22;57916;51.996;5.180;2023-02-14T07:52:45;6.10;69.70
70456;DHT22;57916;51.996;5.180;2023-02-14T07:55:12;6.20;69.70
70456;DHT22;57916;51.996;5.180;2023-02-14T07:57:40;6.20;69.70
70456;DHT22;57916;51.996;5.180;2023-02-14T08:00:07;6.20;70.00
70456;DHT22;57916;51.996;5.180;2023-02-14T08:02:38;6.20;70.20
70456;DHT22;57916;51.996;5.180;2023-02-14T08:05:05;6.20;70.40
70456;DHT22;57916;51.996;5.180;2023-02-14T08:07:32;6.20;70.90
70456;DHT22;57916;51.996;5.180;2023-02-14T08:09:59;6.20;70.90
70456;DHT22;57916;51.996;5.180;2023-02-14T08:12:26;6.40;70.90
70456;DHT22;57916;51.996;5.180;2023-02-14T08:15:12;6.50;70.80
70456;DHT22;57916;51.996;5.180;2023-02-14T08:17:57;6.60;70.70
70456;DHT22;57916;51.996;5.180;2023-02-14T08:20:24;6.70;70.50
70456;DHT22;57916;51.996;5.180;2023-02-14T08:22:51;6.70;70.50
70456;DHT22;57916;51.996;5.180;2023-02-14T08:25:18;6.80;71.00
70456;DHT22;57916;51.996;5.180;2023-02-14T08:27:45;6.90;71.80
70456;DHT22;57916;51.996;5.180;2023-02-14T08:30:12;7.10;72.30
70456;DHT22;57916;51.996;5.180;2023-02-14T08:32:39;7.30;72.40
70456;DHT22;57916;51.996;5.180;2023-02-14T08:35:06;7.50;72.30
70456;DHT22;57916;51.996;5.180;2023-02-14T08:37:33;7.70;72.10
70456;DHT22;57916;51.996;5.180;2023-02-14T08:40:01;7.90;71.90
70456;DHT22;57916;51.996;5.180;2023-02-14T08:42:28;8.00;72.00
70456;DHT22;57916;51.996;5.180;2023-02-14T08:44:55;8.20;72.00
70456;DHT22;57916;51.996;5.180;2023-02-14T08:47:22;8.40;71.80
70456;DHT22;57916;51.996;5.180;2023-02-14T08:49:49;8.60;71.10
70456;DHT22;57916;51.996;5.180;2023-02-14T08:52:16;8.80;70.80
70456;DHT22;57916;51.996;5.180;2023-02-14T08:54:43;9.00;70.50
70456;DHT22;57916;51.996;5.180;2023-02-14T08:57:10;9.20;69.90
70456;DHT22;57916;51.996;5.180;2023-02-14T08:59:37;9.30;69.70
70456;DHT22;57916;51.996;5.180;2023-02-14T09:02:03;9.40;69.80
70456;DHT22;57916;51.996;5.180;2023-02-14T09:04:33;9.50;70.10
70456;DHT22;57916;51.996;5.180;2023-02-14T09:07:00;9.60;70.10
70456;DHT22;57916;51.996;5.180;2023-02-14T09:09:33;9.70;69.70
70456;DHT22;57916;51.996;5.180;2023-02-14T09:12:06;9.90;69.30
70456;DHT22;57916;51.996;5.180;2023-02-14T09:14:38;10.00;69.40
70456;DHT22;57916;51.996;5.180;2023-02-14T09:17:06;10.10;69.70
70456;DHT22;57916;51.996;5.180;2023-02-14T09:19:34;10.20;69.70
70456;DHT22;57916;51.996;5.180;2023-02-14T09:22:02;10.50;69.60
70456;DHT22;57916;51.996;5.180;2023-02-14T09:24:30;10.70;68.80
70456;DHT22;57916;51.996;5.180;2023-02-14T09:26:58;10.90;68.80
70456;DHT22;57916;51.996;5.180;2023-02-14T09:29:26;11.10;68.60
70456;DHT22;57916;51.996;5.180;2023-02-14T09:31:54;11.30;68.60
70456;DHT22;57916;51.996;5.180;2023-02-14T09:34:22;11.60;68.30
70456;DHT22;57916;51.996;5.180;2023-02-14T09:37:10;11.80;67.70
70456;DHT22;57916;51.996;5.180;2023-02-14T09:39:55;12.00;67.10
70456;DHT22;57916;51.996;5.180;2023-02-14T09:43:08;12.10;66.40
70456;DHT22;57916;51.996;5.180;2023-02-14T09:45:36;12.20;66.20
70456;DHT22;57916;51.996;5.180;2023-02-14T09:50:55;12.60;65.90
70456;DHT22;57916;51.996;5.180;2023-02-14T09:53:27;12.90;65.30
70456;DHT22;57916;51.996;5.180;2023-02-14T10:07:13;14.10;61.70
70456;DHT22;57916;51.996;5.180;2023-02-14T10:09:54;14.30;61.50
70456;DHT22;57916;51.996;5.180;2023-02-14T10:12:34;14.50;61.10
70456;DHT22;57916;51.996;5.180;2023-02-14T10:15:11;14.70;60.90
70456;DHT22;57916;51.996;5.180;2023-02-14T10:18:13;15.00;60.60
70456;DHT22;57916;51.996;5.180;2023-02-14T10:20:43;15.40;59.80
70456;DHT22;57916;51.996;5.180;2023-02-14T10:25:56;15.90;58.40
70456;DHT22;57916;51.996;5.180;2023-02-14T10:28:33;16.10;57.10
70456;DHT22;57916;51.996;5.180;2023-02-14T10:31:26;16.20;56.70
70456;DHT22;57916;51.996;5.180;2023-02-14T10:37:33;16.50;56.70
70456;DHT22;57916;51.996;5.180;2023-02-14T10:46:00;16.50;55.30
70456;DHT22;57916;51.996;5.180;2023-02-14T10:49:01;16.30;56.50
70456;DHT22;57916;51.996;5.180;2023-02-14T10:54:42;15.90;56.70
70456;DHT22;57916;51.996;5.180;2023-02-14T10:57:17;15.80;56.50
70456;DHT22;57916;51.996;5.180;2023-02-14T11:02:31;15.50;56.90
70456;DHT22;57916;51.996;5.180;2023-02-14T11:04:59;15.30;58.20
70456;DHT22;57916;51.996;5.180;2023-02-14T11:07:27;15.20;57.90
70456;DHT22;57916;51.996;5.180;2023-02-14T11:09:55;15.00;57.70
70456;DHT22;57916;51.996;5.180;2023-02-14T11:12:39;14.90;58.60
70456;DHT22;57916;51.996;5.180;2023-02-14T11:17:41;14.90;59.30
70456;DHT22;57916;51.996;5.180;2023-02-14T11:22:45;14.90;60.00
70456;DHT22;57916;51.996;5.180;2023-02-14T11:27:49;15.00;60.60
70456;DHT22;57916;51.996;5.180;2023-02-14T11:30:27;15.00;59.50
70456;DHT22;57916;51.996;5.180;2023-02-14T11:32:55;15.00;59.20
70456;DHT22;57916;51.996;5.180;2023-02-14T11:35:25;15.00;59.00
70456;DHT22;57916;51.996;5.180;2023-02-14T11:37:57;15.00;58.00
70456;DHT22;57916;51.996;5.180;2023-02-14T11:40:30;15.00;58.50
70456;DHT22;57916;51.996;5.180;2023-02-14T11:45:45;15.00;59.10
70456;DHT22;57916;51.996;5.180;2023-02-14T11:48:27;14.90;59.10
70456;DHT22;57916;51.996;5.180;2023-02-14T11:51:09;15.00;59.00
70456;DHT22;57916;51.996;5.180;2023-02-14T11:53:51;15.00;59.40
70456;DHT22;57916;51.996;5.180;2023-02-14T11:56:21;15.00;59.30
70456;DHT22;57916;51.996;5.180;2023-02-14T12:01:29;15.10;58.10
70456;DHT22;57916;51.996;5.180;2023-02-14T12:04:00;15.00;58.40
70456;DHT22;57916;51.996;5.180;2023-02-14T12:06:30;15.00;57.90
70456;DHT22;57916;51.996;5.180;2023-02-14T12:12:17;15.00;57.90
70456;DHT22;57916;51.996;5.180;2023-02-14T12:14:45;15.00;58.80
70456;DHT22;57916;51.996;5.180;2023-02-14T12:17:30;14.90;57.40
70456;DHT22;57916;51.996;5.180;2023-02-14T12:22:57;14.70;57.90
70456;DHT22;57916;51.996;5.180;2023-02-14T12:25:37;14.70;58.40
70456;DHT22;57916;51.996;5.180;2023-02-14T12:28:12;14.70;59.00
70456;DHT22;57916;51.996;5.180;2023-02-14T12:30:41;14.80;59.10
70456;DHT22;57916;51.996;5.180;2023-02-14T12:33:17;14.80;59.00
70456;DHT22;57916;51.996;5.180;2023-02-14T12:43:53;14.90;57.80
70456;DHT22;57916;51.996;5.180;2023-02-14T12:46:46;14.90;57.90
70456;DHT22;57916;51.996;5.180;2023-02-14T12:58:11;15.00;56.80
70456;DHT22;57916;51.996;5.180;2023-02-14T13:00:54;15.00;56.90
70456;DHT22;57916;51.996;5.180;2023-02-14T13:06:29;15.10;57.00
70456;DHT22;57916;51.996;5.180;2023-02-14T13:09:15;15.00;56.30
70456;DHT22;57916;51.996;5.180;2023-02-14T13:17:28;15.10;57.00
70456;DHT22;57916;51.996;5.180;2023-02-14T13:22:54;15.10;56.40
70456;DHT22;57916;51.996;5.180;2023-02-14T13:25:27;15.10;56.50
70456;DHT22;57916;51.996;5.180;2023-02-14T13:28:02;15.10;56.40
70456;DHT22;57916;51.996;5.180;2023-02-14T13:30:33;15.20;56.30
70456;DHT22;57916;51.996;5.180;2023-02-14T13:33:05;15.10;56.40
70456;DHT22;57916;51.996;5.180;2023-02-14T13:35:33;15.20;56.30
70456;DHT22;57916;51.996;5.180;2023-02-14T13:38:06;15.20;56.10
70456;DHT22;57916;51.996;5.180;2023-02-14T13:40:34;15.20;55.60
70456;DHT22;57916;51.996;5.180;2023-02-14T13:43:02;15.10;55.70
70456;DHT22;57916;51.996;5.180;2023-02-14T13:50:35;15.30;55.70
70456;DHT22;57916;51.996;5.180;2023-02-14T13:53:03;15.30;55.10
70456;DHT22;57916;51.996;5.180;2023-02-14T13:55:35;15.30;55.20
70456;DHT22;57916;51.996;5.180;2023-02-14T13:58:05;15.30;56.10
70456;DHT22;57916;51.996;5.180;2023-02-14T14:00:41;15.40;56.00
70456;DHT22;57916;51.996;5.180;2023-02-14T14:06:06;15.50;55.40
70456;DHT22;57916;51.996;5.180;2023-02-14T14:08:36;15.40;55.10
70456;DHT22;57916;51.996;5.180;2023-02-14T14:11:09;15.50;55.10
70456;DHT22;57916;51.996;5.180;2023-02-14T14:16:33;15.40;55.80
70456;DHT22;57916;51.996;5.180;2023-02-14T14:19:09;15.50;56.40
70456;DHT22;57916;51.996;5.180;2023-02-14T14:22:04;15.50;56.70
70456;DHT22;57916;51.996;5.180;2023-02-14T14:24:39;15.50;57.10
70456;DHT22;57916;51.996;5.180;2023-02-14T14:27:19;15.50;56.90
70456;DHT22;57916;51.996;5.180;2023-02-14T14:30:04;15.50;56.90
70456;DHT22;57916;51.996;5.180;2023-02-14T14:32:34;15.50;56.70
70456;DHT22;57916;51.996;5.180;2023-02-14T14:35:50;15.40;56.60
70456;DHT22;57916;51.996;5.180;2023-02-14T14:37:53;15.40;56.90
70456;DHT22;57916;51.996;5.180;2023-02-14T14:40:31;15.40;56.90
70456;DHT22;57916;51.996;5.180;2023-02-14T14:43:12;15.40;56.80
70456;DHT22;57916;51.996;5.180;2023-02-14T14:45:40;15.40;56.70
70456;DHT22;57916;51.996;5.180;2023-02-14T14:48:12;15.40;56.50
70456;DHT22;57916;51.996;5.180;2023-02-14T14:50:44;15.40;56.70
70456;DHT22;57916;51.996;5.180;2023-02-14T14:53:23;15.40;56.40
70456;DHT22;57916;51.996;5.180;2023-02-14T14:55:52;15.50;56.10
70456;DHT22;57916;51.996;5.180;2023-02-14T14:58:38;15.40;55.40
70456;DHT22;57916;51.996;5.180;2023-02-14T15:01:09;15.40;55.40
70456;DHT22;57916;51.996;5.180;2023-02-14T15:03:39;15.40;56.10
70456;DHT22;57916;51.996;5.180;2023-02-14T15:06:16;15.40;55.60
70456;DHT22;57916;51.996;5.180;2023-02-14T15:08:44;15.40;55.80
70456;DHT22;57916;51.996;5.180;2023-02-14T15:11:27;15.40;55.80
70456;DHT22;57916;51.996;5.180;2023-02-14T15:14:20;15.40;55.90
70456;DHT22;57916;51.996;5.180;2023-02-14T15:17:21;15.40;56.30
70456;DHT22;57916;51.996;5.180;2023-02-14T15:19:52;15.50;56.50
70456;DHT22;57916;51.996;5.180;2023-02-14T15:25:08;15.60;56.20
70456;DHT22;57916;51.996;5.180;2023-02-14T15:27:38;15.60;56.10
70456;DHT22;57916;51.996;5.180;2023-02-14T15:30:30;15.60;55.90
70456;DHT22;57916;51.996;5.180;2023-02-14T15:33:01;15.70;55.90
70456;DHT22;57916;51.996;5.180;2023-02-14T15:35:33;15.70;55.80
70456;DHT22;57916;51.996;5.180;2023-02-14T15:38:02;15.70;55.60
70456;DHT22;57916;51.996;5.180;2023-02-14T15:40:32;15.70;55.30
70456;DHT22;57916;51.996;5.180;2023-02-14T15:45:55;15.70;55.10
70456;DHT22;57916;51.996;5.180;2023-02-14T15:48:32;15.70;55.00
70456;DHT22;57916;51.996;5.180;2023-02-14T15:51:00;15.60;55.10
70456;DHT22;57916;51.996;5.180;2023-02-14T15:53:34;15.60;55.00
70456;DHT22;57916;51.996;5.180;2023-02-14T15:56:08;15.50;55.50
70456;DHT22;57916;51.996;5.180;2023-02-14T15:58:37;15.50;56.40
70456;DHT22;57916;51.996;5.180;2023-02-14T16:01:06;15.40;56.90
70456;DHT22;57916;51.996;5.180;2023-02-14T16:03:37;15.30;56.80
70456;DHT22;57916;51.996;5.180;2023-02-14T16:06:05;15.30;57.20
70456;DHT22;57916;51.996;5.180;2023-02-14T16:08:35;15.20;57.40
70456;DHT22;57916;51.996;5.180;2023-02-14T16:11:13;15.10;57.70
70456;DHT22;57916;51.996;5.180;2023-02-14T16:13:43;15.10;57.90
70456;DHT22;57916;51.996;5.180;2023-02-14T16:16:12;15.10;58.00
70456;DHT22;57916;51.996;5.180;2023-02-14T16:18:53;15.10;58.00
70456;DHT22;57916;51.996;5.180;2023-02-14T16:21:30;15.00;58.10
70456;DHT22;57916;51.996;5.180;2023-02-14T16:26:38;14.90;58.20
70456;DHT22;57916;51.996;5.180;2023-02-14T16:29:07;14.90;58.40
70456;DHT22;57916;51.996;5.180;2023-02-14T16:31:44;14.80;58.30
70456;DHT22;57916;51.996;5.180;2023-02-14T16:34:31;14.70;58.40
70456;DHT22;57916;51.996;5.180;2023-02-14T16:37:05;14.60;58.60
70456;DHT22;57916;51.996;5.180;2023-02-14T16:39:38;14.60;58.80
70456;DHT22;57916;51.996;5.180;2023-02-14T16:42:05;14.50;58.80
70456;DHT22;57916;51.996;5.180;2023-02-14T16:44:36;14.50;58.80
70456;DHT22;57916;51.996;5.180;2023-02-14T16:47:09;14.40;58.90
70456;DHT22;57916;51.996;5.180;2023-02-14T16:49:37;14.40;59.10
70456;DHT22;57916;51.996;5.180;2023-02-14T16:52:04;14.30;59.00
70456;DHT22;57916;51.996;5.180;2023-02-14T16:54:31;14.30;59.00
70456;DHT22;57916;51.996;5.180;2023-02-14T16:57:01;14.30;58.90
70456;DHT22;57916;51.996;5.180;2023-02-14T16:59:29;14.30;59.00
70456;DHT22;57916;51.996;5.180;2023-02-14T17:01:57;14.30;59.00
70456;DHT22;57916;51.996;5.180;2023-02-14T17:04:24;14.30;58.90
70456;DHT22;57916;51.996;5.180;2023-02-14T17:06:53;14.20;59.00
70456;DHT22;57916;51.996;5.180;2023-02-14T17:09:24;14.20;59.10
70456;DHT22;57916;51.996;5.180;2023-02-14T17:11:55;14.10;59.20
70456;DHT22;57916;51.996;5.180;2023-02-14T17:14:26;14.10;59.50
70456;DHT22;57916;51.996;5.180;2023-02-14T17:16:56;14.00;59.80
70456;DHT22;57916;51.996;5.180;2023-02-14T17:19:23;13.90;59.90
70456;DHT22;57916;51.996;5.180;2023-02-14T17:21:51;13.90;59.30
70456;DHT22;57916;51.996;5.180;2023-02-14T17:24:18;13.80;59.50
70456;DHT22;57916;51.996;5.180;2023-02-14T17:26:45;13.80;59.80
70456;DHT22;57916;51.996;5.180;2023-02-14T17:29:11;13.70;59.90
70456;DHT22;57916;51.996;5.180;2023-02-14T17:31:39;13.70;59.90
70456;DHT22;57916;51.996;5.180;2023-02-14T17:34:06;13.60;60.10
70456;DHT22;57916;51.996;5.180;2023-02-14T17:36:32;13.50;60.20
70456;DHT22;57916;51.996;5.180;2023-02-14T17:38:59;13.50;60.20
70456;DHT22;57916;51.996;5.180;2023-02-14T17:41:28;13.40;60.00
70456;DHT22;57916;51.996;5.180;2023-02-14T17:43:56;13.40;60.10
70456;DHT22;57916;51.996;5.180;2023-02-14T17:46:27;13.30;61.10
70456;DHT22;57916;51.996;5.180;2023-02-14T17:48:55;13.20;60.40
70456;DHT22;57916;51.996;5.180;2023-02-14T17:51:22;13.20;60.60
70456;DHT22;57916;51.996;5.180;2023-02-14T17:53:49;13.10;60.80
70456;DHT22;57916;51.996;5.180;2023-02-14T17:56:19;13.10;60.80
70456;DHT22;57916;51.996;5.180;2023-02-14T17:58:48;13.10;60.80
70456;DHT22;57916;51.996;5.180;2023-02-14T18:01:21;13.00;60.90
70456;DHT22;57916;51.996;5.180;2023-02-14T18:03:49;12.90;61.00
70456;DHT22;57916;51.996;5.180;2023-02-14T18:06:17;12.80;61.10
70456;DHT22;57916;51.996;5.180;2023-02-14T18:08:46;12.80;60.80
70456;DHT22;57916;51.996;5.180;2023-02-14T18:11:20;12.80;60.70
70456;DHT22;57916;51.996;5.180;2023-02-14T18:13:47;12.70;60.70
70456;DHT22;57916;51.996;5.180;2023-02-14T18:16:17;12.60;61.20
70456;DHT22;57916;51.996;5.180;2023-02-14T18:18:44;12.50;61.50
70456;DHT22;57916;51.996;5.180;2023-02-14T18:21:13;12.40;61.40
70456;DHT22;57916;51.996;5.180;2023-02-14T18:23:40;12.30;61.30
70456;DHT22;57916;51.996;5.180;2023-02-14T18:26:12;12.10;61.20
70456;DHT22;57916;51.996;5.180;2023-02-14T18:28:40;12.10;60.20